Terminal Aerodrome Forecast
Issued by NWS

Home | Current Version | Previous Version | Text Only | Print | Product List | Glossary On
Versions: 1 2 3 4 5 6 7 8 9 10 11 12 13 14 15 16 17 18 19 20 21
774
FTUS41 KGYX 170520
TAFAUG
TAF
KAUG 170520Z 1706/1806 00000KT P6SM SKC
     FM171400 29007KT P6SM SKC
     FM180200 00000KT P6SM FEW250=

USA.gov is the U.S. government's official web portal to all federal, state and local government web resources and services.